createdAt,value
2018-04-11T00:02:10.366Z,7.93
2018-04-11T00:04:39.371Z,7.96
2018-04-11T00:07:07.631Z,7.82
2018-04-11T00:09:35.851Z,7.82
2018-04-11T00:12:04.894Z,7.91
2018-04-11T00:14:33.123Z,7.98
2018-04-11T00:17:01.371Z,7.88
2018-04-11T00:19:29.627Z,7.82
2018-04-11T00:21:58.699Z,7.81
2018-04-11T00:24:26.956Z,7.80
2018-04-11T00:26:55.223Z,7.78
2018-04-11T00:29:24.236Z,7.69
2018-04-11T00:31:53.235Z,7.64
2018-04-11T00:34:22.243Z,7.61
2018-04-11T00:36:56.002Z,7.60
2018-04-11T00:39:24.257Z,7.63
2018-04-11T00:41:52.481Z,7.54
2018-04-11T00:44:20.730Z,7.63
2018-04-11T00:46:48.982Z,7.58
2018-04-11T00:49:17.235Z,7.52
2018-04-11T00:51:45.495Z,7.48
2018-04-11T00:54:13.753Z,7.42
2018-04-11T00:56:42.081Z,7.37
2018-04-11T00:59:10.318Z,7.39
2018-04-11T01:01:38.567Z,7.38
2018-04-11T01:04:06.839Z,7.49
2018-04-11T01:06:35.066Z,7.40
2018-04-11T01:09:03.312Z,7.37
2018-04-11T01:11:32.407Z,7.35
2018-04-11T01:14:01.421Z,7.38
2018-04-11T01:16:31.051Z,7.36
2018-04-11T01:19:00.058Z,7.36
2018-04-11T01:21:28.290Z,7.48
2018-04-11T01:23:56.555Z,7.43
2018-04-11T01:26:24.798Z,7.44
2018-04-11T01:28:53.930Z,7.48
2018-04-11T01:31:22.187Z,7.45
2018-04-11T01:33:50.459Z,7.48
2018-04-11T01:36:18.694Z,7.48
2018-04-11T01:38:48.278Z,7.50
2018-04-11T01:41:16.532Z,7.51
2018-04-11T01:43:44.780Z,7.46
2018-04-11T01:46:13.815Z,7.50
2018-04-11T01:48:43.039Z,7.57
2018-04-11T01:51:11.283Z,7.51
2018-04-11T01:53:40.280Z,7.48
2018-04-11T01:56:08.558Z,7.53
2018-04-11T01:58:36.799Z,7.48
2018-04-11T02:01:06.507Z,7.53
2018-04-11T02:03:34.729Z,7.50
2018-04-11T02:06:03.752Z,7.46
2018-04-11T02:08:31.997Z,7.35
2018-04-11T02:11:00.227Z,7.43
2018-04-11T02:13:28.451Z,7.44
2018-04-11T02:15:57.473Z,7.39
2018-04-11T02:18:25.733Z,7.30
2018-04-11T02:20:55.305Z,7.26
2018-04-11T02:23:23.542Z,7.23
2018-04-11T02:25:52.588Z,7.16
2018-04-11T02:28:20.832Z,7.21
2018-04-11T02:30:49.091Z,7.00
2018-04-11T02:33:17.328Z,6.89
2018-04-11T02:35:46.363Z,6.90
2018-04-11T02:38:14.636Z,6.90
2018-04-11T02:40:42.917Z,6.72
2018-04-11T02:43:11.915Z,6.60
2018-04-11T02:45:40.923Z,6.65
2018-04-11T02:48:10.661Z,6.60
2018-04-11T02:50:38.903Z,6.69
2018-04-11T02:53:07.145Z,6.67
2018-04-11T02:55:35.416Z,6.75
2018-04-11T02:58:04.414Z,6.77
2018-04-11T03:00:33.421Z,6.79
2018-04-11T03:03:02.426Z,6.82
2018-04-11T03:05:31.417Z,6.78
2018-04-11T03:07:59.671Z,6.81
2018-04-11T03:10:27.910Z,6.88
2018-04-11T03:12:57.543Z,6.70
2018-04-11T03:15:25.769Z,6.71
2018-04-11T03:17:54.024Z,6.56
2018-04-11T03:20:22.253Z,6.63
2018-04-11T03:22:50.532Z,6.72
2018-04-11T03:25:18.761Z,6.61
2018-04-11T03:27:47.014Z,6.39
2018-04-11T03:30:15.275Z,6.29
2018-04-11T03:32:43.678Z,6.21
2018-04-11T03:35:11.955Z,6.23
2018-04-11T03:37:40.199Z,6.06
2018-04-11T03:40:08.430Z,6.04
2018-04-11T03:42:36.670Z,5.97
2018-04-11T03:45:04.906Z,5.92
2018-04-11T03:47:34.514Z,5.81
2018-04-11T03:50:02.779Z,5.79
2018-04-11T03:52:31.043Z,5.87
2018-04-11T03:54:59.268Z,5.88
2018-04-11T03:57:28.323Z,5.80
2018-04-11T03:59:56.550Z,5.83
2018-04-11T04:02:24.878Z,5.77
2018-04-11T04:04:53.878Z,5.80
2018-04-11T04:07:22.878Z,5.75
2018-04-11T04:09:51.876Z,5.74
2018-04-11T04:12:20.889Z,5.64
2018-04-11T04:15:07.742Z,5.52
2018-04-11T04:17:53.742Z,5.62
2018-04-11T04:20:42.119Z,5.52
2018-04-11T04:23:10.384Z,5.59
2018-04-11T04:25:39.387Z,5.55
2018-04-11T04:28:07.645Z,5.51
2018-04-11T04:30:35.874Z,5.56
2018-04-11T04:33:04.136Z,5.51
2018-04-11T04:35:33.118Z,5.45
2018-04-11T04:38:01.393Z,5.44
2018-04-11T04:40:29.635Z,5.56
2018-04-11T04:42:57.898Z,5.53
2018-04-11T04:45:26.985Z,5.48
2018-04-11T04:47:55.227Z,5.53
2018-04-11T04:50:23.458Z,5.53
2018-04-11T04:52:51.714Z,5.51
2018-04-11T04:55:19.983Z,5.55
2018-04-11T04:57:49.722Z,5.50
2018-04-11T05:00:18.013Z,5.55
2018-04-11T05:02:46.254Z,5.46
2018-04-11T05:05:14.500Z,5.56
2018-04-11T05:07:42.785Z,5.60
2018-04-11T05:10:11.763Z,5.64
2018-04-11T05:12:40.749Z,5.70
2018-04-11T05:15:09.774Z,5.76
2018-04-11T05:17:38.791Z,5.79
2018-04-11T05:20:07.047Z,5.87
2018-04-11T05:22:35.277Z,5.91
2018-04-11T05:25:03.547Z,5.97
2018-04-11T05:27:31.782Z,6.05
2018-04-11T05:30:00.037Z,6.13
2018-04-11T05:32:28.268Z,6.24
2018-04-11T05:34:56.517Z,6.25
2018-04-11T05:37:24.753Z,6.30
2018-04-11T05:39:53.007Z,6.42
2018-04-11T05:42:21.244Z,6.56
2018-04-11T05:44:50.271Z,6.70
2018-04-11T05:47:20.006Z,6.76
2018-04-11T05:49:48.250Z,6.88
2018-04-11T05:52:16.499Z,6.95
2018-04-11T05:54:44.755Z,7.00
2018-04-11T05:57:13.778Z,7.14
2018-04-11T05:59:42.072Z,7.44
2018-04-11T06:02:10.304Z,7.57
2018-04-11T06:04:38.562Z,7.67
2018-04-11T06:07:06.781Z,7.77
2018-04-11T06:09:35.039Z,7.99
2018-04-11T06:12:03.267Z,8.27
2018-04-11T06:14:31.493Z,8.28
2018-04-11T06:16:59.825Z,8.45
2018-04-11T06:19:29.014Z,8.57
2018-04-11T06:21:57.279Z,8.73
2018-04-11T06:24:26.291Z,8.87
2018-04-11T06:26:54.580Z,9.12
2018-04-11T06:29:22.828Z,9.38
2018-04-11T06:31:52.404Z,9.50
2018-04-11T06:34:20.623Z,9.59
2018-04-11T06:36:48.884Z,9.82
2018-04-11T06:39:17.116Z,9.85
2018-04-11T06:41:45.453Z,9.84
2018-04-11T06:44:13.694Z,10.14
2018-04-11T06:46:41.956Z,10.31
2018-04-11T06:49:10.198Z,10.50
2018-04-11T06:51:39.589Z,10.57
2018-04-11T06:54:07.832Z,10.86
2018-04-11T06:56:36.092Z,11.02
2018-04-11T06:59:04.334Z,10.72
2018-04-11T07:01:32.623Z,10.83
2018-04-11T07:04:00.879Z,10.83
2018-04-11T07:06:29.147Z,10.84
2018-04-11T07:08:57.400Z,11.16
2018-04-11T07:11:25.654Z,11.23
2018-04-11T07:13:53.896Z,11.58
2018-04-11T07:16:22.951Z,11.50
2018-04-11T07:18:51.199Z,11.76
2018-04-11T07:21:20.225Z,11.68
2018-04-11T07:23:48.463Z,11.60
2018-04-11T07:26:16.738Z,11.60
2018-04-11T07:28:45.019Z,11.75
2018-04-11T07:31:13.322Z,11.58
2018-04-11T07:33:41.566Z,11.90
2018-04-11T07:36:09.843Z,11.60
2018-04-11T07:38:39.594Z,11.80
2018-04-11T07:41:07.875Z,12.25
2018-04-11T07:43:36.129Z,12.10
2018-04-11T07:46:04.449Z,12.77
2018-04-11T07:48:32.669Z,12.53
2018-04-11T07:51:00.909Z,13.15
2018-04-11T07:53:30.008Z,12.76
2018-04-11T07:55:58.259Z,13.09
2018-04-11T07:58:26.512Z,12.40
2018-04-11T08:00:54.755Z,12.30
2018-04-11T08:03:23.056Z,12.56
2018-04-11T08:05:51.346Z,12.84
2018-04-11T08:08:19.604Z,13.10
2018-04-11T08:10:47.849Z,13.08
2018-04-11T08:13:16.131Z,13.07
2018-04-11T08:15:45.170Z,12.80
2018-04-11T08:18:13.445Z,12.95
2018-04-11T08:20:41.691Z,13.10
2018-04-11T08:23:09.981Z,13.65
2018-04-11T08:25:38.323Z,13.79
2018-04-11T08:28:06.606Z,13.78
2018-04-11T08:30:34.864Z,13.51
2018-04-11T08:33:03.923Z,13.16
2018-04-11T08:35:32.181Z,13.00
2018-04-11T08:38:00.461Z,13.68
2018-04-11T08:40:29.454Z,13.81
2018-04-11T08:42:58.471Z,14.19
2018-04-11T08:45:27.479Z,14.69
2018-04-11T08:47:56.482Z,14.36
2018-04-11T08:50:25.482Z,14.48
2018-04-11T08:52:54.519Z,14.29
2018-04-11T08:55:22.809Z,14.31
2018-04-11T08:57:51.047Z,14.53
2018-04-11T09:00:19.323Z,14.89
2018-04-11T09:02:47.583Z,14.82
2018-04-11T09:05:15.849Z,14.13
2018-04-11T09:07:44.116Z,14.33
2018-04-11T09:10:12.387Z,14.83
2018-04-11T09:12:40.643Z,14.78
2018-04-11T09:15:08.898Z,15.31
2018-04-11T09:17:37.155Z,14.70
2018-04-11T09:20:05.400Z,15.16
2018-04-11T09:22:33.651Z,15.33
2018-04-11T09:25:04.195Z,14.73
2018-04-11T09:27:34.851Z,15.26
2018-04-11T09:30:03.370Z,15.08
2018-04-11T09:32:32.811Z,14.73
2018-04-11T09:35:03.234Z,15.27
2018-04-11T09:37:31.474Z,15.68
2018-04-11T09:40:00.493Z,15.20
2018-04-11T09:42:29.494Z,15.46
2018-04-11T09:44:59.240Z,15.64
2018-04-11T09:47:29.174Z,15.18
2018-04-11T09:49:58.132Z,15.42
2018-04-11T09:52:27.257Z,15.82
2018-04-11T09:54:56.474Z,15.09
2018-04-11T09:57:27.125Z,15.32
2018-04-11T09:59:57.739Z,15.50
2018-04-11T10:02:27.504Z,16.03
2018-04-11T10:04:55.753Z,16.13
2018-04-11T10:07:24.785Z,16.14
2018-04-11T10:09:53.023Z,16.39
2018-04-11T10:12:21.272Z,16.61
2018-04-11T10:14:50.323Z,16.57
2018-04-11T10:17:18.566Z,16.62
2018-04-11T10:19:47.582Z,16.53
2018-04-11T10:22:15.830Z,16.22
2018-04-11T10:24:44.149Z,16.05
2018-04-11T10:27:13.154Z,16.00
2018-04-11T10:29:41.727Z,15.61
2018-04-11T10:32:09.968Z,15.52
2018-04-11T10:34:38.261Z,15.69
2018-04-11T10:37:06.511Z,16.35
2018-04-11T10:39:35.537Z,16.89
2018-04-11T10:42:03.779Z,16.43
2018-04-11T10:44:32.066Z,16.44
2018-04-11T10:47:00.299Z,16.48
2018-04-11T10:49:28.542Z,16.93
2018-04-11T10:51:56.803Z,16.72
2018-04-11T10:54:25.047Z,16.25
2018-04-11T10:56:54.092Z,16.10
2018-04-11T10:59:23.815Z,16.23
2018-04-11T11:01:52.074Z,16.21
2018-04-11T11:04:21.059Z,16.46
2018-04-11T11:06:50.099Z,16.86
2018-04-11T11:09:18.346Z,16.31
2018-04-11T11:11:46.623Z,16.63
2018-04-11T11:14:15.468Z,16.83
2018-04-11T11:16:43.758Z,16.90
2018-04-11T11:19:12.965Z,17.26
2018-04-11T11:21:41.332Z,16.75
2018-04-11T11:24:09.593Z,16.79
2018-04-11T11:26:37.850Z,17.08
2018-04-11T11:29:06.115Z,17.51
2018-04-11T11:31:35.203Z,17.61
2018-04-11T11:34:03.459Z,17.52
2018-04-11T11:36:31.716Z,17.61
2018-04-11T11:38:59.970Z,17.99
2018-04-11T11:41:28.231Z,17.31
2018-04-11T11:43:57.240Z,17.62
2018-04-11T11:46:25.491Z,17.79
2018-04-11T11:48:53.735Z,17.64
2018-04-11T11:51:22.020Z,16.78
2018-04-11T11:53:50.320Z,16.99
2018-04-11T11:56:18.583Z,17.54
2018-04-11T11:58:46.836Z,17.85
2018-04-11T12:01:15.115Z,17.28
2018-04-11T12:03:43.403Z,17.63
2018-04-11T12:06:12.421Z,17.54
2018-04-11T12:08:40.666Z,17.96
2018-04-11T12:11:08.975Z,17.48
2018-04-11T12:13:38.003Z,17.63
2018-04-11T12:16:06.236Z,18.07
2018-04-11T12:18:34.487Z,17.32
2018-04-11T12:21:02.736Z,17.49
2018-04-11T12:23:31.001Z,17.88
2018-04-11T12:25:59.243Z,17.81
2018-04-11T12:28:27.502Z,18.29
2018-04-11T12:30:55.761Z,17.68
2018-04-11T12:33:24.011Z,18.23
2018-04-11T12:35:52.335Z,18.15
2018-04-11T12:38:20.591Z,18.53
2018-04-11T12:40:48.840Z,18.38
2018-04-11T12:43:17.118Z,18.10
2018-04-11T12:45:45.393Z,18.10
2018-04-11T12:48:14.493Z,18.14
2018-04-11T12:50:42.769Z,18.67
2018-04-11T12:53:11.050Z,18.18
2018-04-11T12:55:39.281Z,18.61
2018-04-11T12:58:07.598Z,18.16
2018-04-11T13:00:35.818Z,18.75
2018-04-11T13:03:04.083Z,18.19
2018-04-11T13:05:33.083Z,18.04
2018-04-11T13:08:02.125Z,18.63
2018-04-11T13:10:30.369Z,18.63
2018-04-11T13:12:58.631Z,18.88
2018-04-11T13:15:26.880Z,19.09
2018-04-11T13:17:55.139Z,19.76
2018-04-11T13:20:24.147Z,19.20
2018-04-11T13:22:53.198Z,19.32
2018-04-11T13:25:21.435Z,18.80
2018-04-11T13:27:49.689Z,18.72
2018-04-11T13:30:17.943Z,18.85
2018-04-11T13:32:46.239Z,19.48
2018-04-11T13:35:15.264Z,19.38
2018-04-11T13:37:44.364Z,19.19
2018-04-11T13:40:12.734Z,19.19
2018-04-11T13:42:42.575Z,19.26
2018-04-11T13:45:10.823Z,19.68
2018-04-11T13:47:40.814Z,19.54
2018-04-11T13:50:09.051Z,19.47
2018-04-11T13:52:38.072Z,19.00
2018-04-11T13:55:06.327Z,18.86
2018-04-11T13:57:34.587Z,19.03
2018-04-11T14:00:02.887Z,19.40
2018-04-11T14:02:31.184Z,19.52
2018-04-11T14:04:59.397Z,19.34
2018-04-11T14:07:27.637Z,18.81
2018-04-11T14:09:55.916Z,18.68
2018-04-11T14:12:24.200Z,18.36
2018-04-11T14:14:52.456Z,18.25
2018-04-11T14:17:22.208Z,18.17
2018-04-11T14:19:50.465Z,18.63
2018-04-11T14:22:18.712Z,18.99
2018-04-11T14:24:46.978Z,19.58
2018-04-11T14:27:16.007Z,19.71
2018-04-11T14:29:45.220Z,19.28
2018-04-11T14:32:13.488Z,18.92
2018-04-11T14:34:42.040Z,19.60
2018-04-11T14:37:11.039Z,19.76
2018-04-11T14:39:40.091Z,19.63
2018-04-11T14:42:08.351Z,19.42
2018-04-11T14:44:37.380Z,19.09
2018-04-11T14:47:05.671Z,18.92
2018-04-11T14:49:34.686Z,19.06
2018-04-11T14:52:02.939Z,18.93
2018-04-11T14:54:31.954Z,19.22
2018-04-11T14:57:00.963Z,18.45
2018-04-11T14:59:30.005Z,18.34
2018-04-11T15:01:58.241Z,18.55
2018-04-11T15:04:27.269Z,18.61
2018-04-11T15:06:55.519Z,18.39
2018-04-11T15:09:23.779Z,18.45
2018-04-11T15:11:52.031Z,18.95
2018-04-11T15:14:21.080Z,19.25
2018-04-11T15:16:49.342Z,18.95
2018-04-11T15:19:17.592Z,19.01
2018-04-11T15:21:45.882Z,18.93
2018-04-11T15:24:14.907Z,19.22
2018-04-11T15:26:43.935Z,18.74
2018-04-11T15:29:12.231Z,18.74
2018-04-11T15:31:40.522Z,18.40
2018-04-11T15:34:08.776Z,18.25
2018-04-11T15:36:37.059Z,18.46
2018-04-11T15:39:05.489Z,18.62
2018-04-11T15:41:33.753Z,18.31
2018-04-11T15:44:02.758Z,18.34
2018-04-11T15:46:37.099Z,18.02
2018-04-11T15:49:05.352Z,18.06
2018-04-11T15:51:33.613Z,17.95
2018-04-11T15:54:01.871Z,18.16
2018-04-11T15:56:31.259Z,18.45
2018-04-11T15:58:59.545Z,18.43
2018-04-11T16:01:27.811Z,18.31
2018-04-11T16:03:56.051Z,18.08
2018-04-11T16:06:24.312Z,18.17
2018-04-11T16:08:52.553Z,18.17
2018-04-11T16:11:20.829Z,18.18
2018-04-11T16:13:49.834Z,18.38
2018-04-11T16:16:18.890Z,18.23
2018-04-11T16:18:47.127Z,18.19
2018-04-11T16:21:15.444Z,18.01
2018-04-11T16:23:43.739Z,18.02
2018-04-11T16:26:12.019Z,17.93
2018-04-11T16:28:40.305Z,17.86
2018-04-11T16:31:08.570Z,17.87
2018-04-11T16:33:36.824Z,17.96
2018-04-11T16:36:05.082Z,18.05
2018-04-11T16:38:33.356Z,18.12
2018-04-11T16:41:01.598Z,18.08
2018-04-11T16:43:30.628Z,18.27
2018-04-11T16:45:59.519Z,18.14
2018-04-11T16:48:28.543Z,18.13
2018-04-11T16:50:56.812Z,18.05
2018-04-11T16:53:25.868Z,17.97
2018-04-11T16:55:55.254Z,17.98
2018-04-11T16:58:23.552Z,18.02
2018-04-11T17:00:51.817Z,17.96
2018-04-11T17:03:20.869Z,17.95
2018-04-11T17:05:49.135Z,18.00
2018-04-11T17:08:18.150Z,17.90
2018-04-11T17:10:46.400Z,18.10
2018-04-11T17:13:15.464Z,18.35
2018-04-11T17:15:44.507Z,18.79
2018-04-11T17:18:12.786Z,18.97
2018-04-11T17:20:58.735Z,18.89
2018-04-11T17:23:44.645Z,18.81
2018-04-11T17:29:44.066Z,18.29
2018-04-11T17:32:12.330Z,17.93
2018-04-11T17:34:40.586Z,17.70
2018-04-11T17:37:08.856Z,17.51
2018-04-11T17:39:37.138Z,17.35
2018-04-11T17:42:06.150Z,17.35
2018-04-11T17:44:35.184Z,17.18
2018-04-11T17:47:03.428Z,17.02
2018-04-11T17:49:32.451Z,16.93
2018-04-11T17:52:00.699Z,16.84
2018-04-11T17:54:28.967Z,16.87
2018-04-11T17:56:57.347Z,16.73
2018-04-11T17:59:25.609Z,16.62
2018-04-11T18:01:53.854Z,16.57
2018-04-11T18:04:22.112Z,16.52
2018-04-11T18:06:51.118Z,16.40
2018-04-11T18:09:19.462Z,16.38
2018-04-11T18:11:49.212Z,16.17
2018-04-11T18:14:17.481Z,16.07
2018-04-11T18:16:46.533Z,15.97
2018-04-11T18:19:14.804Z,15.95
2018-04-11T18:21:43.059Z,15.87
2018-04-11T18:24:11.315Z,15.75
2018-04-11T18:26:39.560Z,15.70
2018-04-11T18:29:07.833Z,15.73
2018-04-11T18:31:36.063Z,15.74
2018-04-11T18:34:04.327Z,15.74
2018-04-11T18:36:32.557Z,15.71
2018-04-11T18:39:00.806Z,15.75
2018-04-11T18:41:29.850Z,15.68
2018-04-11T18:43:58.168Z,15.64
2018-04-11T18:46:26.417Z,15.57
2018-04-11T18:48:54.680Z,15.50
2018-04-11T18:51:22.926Z,15.47
2018-04-11T18:53:51.207Z,15.36
2018-04-11T18:56:20.236Z,15.26
2018-04-11T18:58:49.294Z,15.24
2018-04-11T19:01:17.540Z,15.02
2018-04-11T19:03:46.635Z,14.94
2018-04-11T19:06:14.885Z,14.85
2018-04-11T19:08:43.149Z,14.84
2018-04-11T19:11:11.408Z,14.77
2018-04-11T19:13:40.478Z,14.76
2018-04-11T19:16:08.735Z,14.72
2018-04-11T19:18:36.975Z,14.69
2018-04-11T19:21:05.245Z,14.65
2018-04-11T19:23:33.486Z,14.61
2018-04-11T19:26:02.512Z,14.66
2018-04-11T19:28:30.760Z,14.64
2018-04-11T19:30:59.075Z,14.57
2018-04-11T19:33:28.687Z,14.66
2018-04-11T19:35:58.442Z,14.71
2018-04-11T19:38:26.741Z,14.60
2018-04-11T19:40:56.135Z,14.55
2018-04-11T19:43:24.387Z,14.45
2018-04-11T19:45:52.662Z,14.55
2018-04-11T19:48:20.903Z,14.43
2018-04-11T19:50:49.171Z,14.31
2018-04-11T19:53:18.215Z,14.11
2018-04-11T19:55:46.541Z,14.23
2018-04-11T19:58:14.749Z,14.15
2018-04-11T20:00:43.045Z,14.01
2018-04-11T20:03:11.304Z,13.87
2018-04-11T20:05:39.581Z,13.88
2018-04-11T20:08:07.849Z,13.95
2018-04-11T20:10:36.117Z,13.89
2018-04-11T20:13:04.366Z,13.95
2018-04-11T20:15:32.612Z,13.99
2018-04-11T20:18:00.858Z,13.90
2018-04-11T20:20:29.882Z,13.84
2018-04-11T20:22:58.904Z,13.89
2018-04-11T20:25:27.896Z,13.96
2018-04-11T20:27:56.930Z,13.72
2018-04-11T20:30:25.180Z,13.72
2018-04-11T20:32:54.211Z,13.70
2018-04-11T20:35:22.464Z,13.74
2018-04-11T20:37:50.778Z,13.73
2018-04-11T20:40:19.793Z,13.62
2018-04-11T20:42:48.088Z,13.69
2018-04-11T20:45:16.305Z,13.68
2018-04-11T20:47:44.588Z,13.59
2018-04-11T20:50:12.858Z,13.62
2018-04-11T20:52:41.088Z,13.46
2018-04-11T20:55:10.246Z,13.49
2018-04-11T20:57:38.511Z,13.46
2018-04-11T21:00:07.511Z,13.27
2018-04-11T21:02:35.776Z,13.25
2018-04-11T21:05:04.058Z,13.32
2018-04-11T21:07:32.306Z,13.25
2018-04-11T21:10:00.567Z,13.14
2018-04-11T21:12:28.809Z,13.19
2018-04-11T21:14:57.064Z,13.01
2018-04-11T21:17:26.092Z,12.92
2018-04-11T21:19:54.335Z,12.96
2018-04-11T21:22:22.602Z,12.88
2018-04-11T21:24:50.855Z,12.96
2018-04-11T21:27:19.120Z,12.91
2018-04-11T21:29:47.391Z,12.74
2018-04-11T21:32:15.671Z,12.76
2018-04-11T21:34:43.927Z,12.63
2018-04-11T21:37:12.188Z,12.60
2018-04-11T21:39:40.429Z,12.51
2018-04-11T21:42:08.728Z,12.48
2018-04-11T21:44:36.982Z,12.47
2018-04-11T21:47:05.244Z,12.54
2018-04-11T21:49:33.512Z,12.45
2018-04-11T21:52:02.535Z,12.35
2018-04-11T21:54:31.567Z,12.32
2018-04-11T21:56:59.820Z,12.30
2018-04-11T21:59:28.838Z,12.30
2018-04-11T22:01:57.102Z,12.21
2018-04-11T22:04:25.355Z,12.13
2018-04-11T22:06:53.594Z,12.21
2018-04-11T22:09:22.607Z,12.25
2018-04-11T22:11:50.857Z,12.23
2018-04-11T22:14:19.107Z,12.12
2018-04-11T22:16:48.123Z,12.09
2018-04-11T22:19:16.387Z,12.03
2018-04-11T22:21:44.645Z,11.99
2018-04-11T22:24:12.924Z,12.05
2018-04-11T22:26:41.178Z,11.98
2018-04-11T22:29:09.428Z,11.88
2018-04-11T22:31:38.452Z,11.82
2018-04-11T22:34:06.699Z,11.73
2018-04-11T22:36:34.935Z,11.73
2018-04-11T22:39:03.229Z,11.67
2018-04-11T22:41:31.473Z,11.68
2018-04-11T22:43:59.721Z,11.64
2018-04-11T22:46:27.963Z,11.56
2018-04-11T22:48:57.011Z,11.55
2018-04-11T22:51:25.272Z,11.50
2018-04-11T22:53:53.511Z,11.48
2018-04-11T22:56:21.806Z,11.44
2018-04-11T22:58:50.824Z,11.42
2018-04-11T23:01:19.094Z,11.42
2018-04-11T23:03:47.326Z,11.41
2018-04-11T23:06:16.363Z,11.33
2018-04-11T23:08:44.632Z,11.29
2018-04-11T23:11:12.914Z,11.35
2018-04-11T23:13:41.154Z,11.29
2018-04-11T23:16:10.226Z,11.24
2018-04-11T23:18:38.467Z,11.14
2018-04-11T23:21:06.739Z,11.18
2018-04-11T23:23:35.739Z,11.13
2018-04-11T23:26:04.001Z,11.11
2018-04-11T23:28:33.018Z,10.99
2018-04-11T23:31:01.297Z,11.01
2018-04-11T23:33:29.535Z,11.01
2018-04-11T23:35:57.783Z,10.87
2018-04-11T23:38:26.039Z,10.80
2018-04-11T23:40:55.047Z,10.74
2018-04-11T23:43:24.064Z,10.76
2018-04-11T23:45:52.322Z,10.65
2018-04-11T23:48:20.552Z,10.80
2018-04-11T23:50:48.810Z,10.73
2018-04-11T23:53:17.860Z,10.73
2018-04-11T23:55:46.098Z,10.68
2018-04-11T23:58:15.119Z,10.69
